<?xml version="1.0" encoding="UTF-8" standalone="no" ?>
<gpx xmlns="http://www.topografix.com/GPX/1/1" xmlns:xsi="http://www.w3.org/2001/XMLSchema-instance" xsi:schemaLocation="http://www.topografix.com/GPX/1/1 http://www.topografix.com/GPX/1/1/gpx.xsd" version="1.1" creator="VisuGPX - https://www.visugpx.com">
  <metadata>
    <name>FONTAINEBLEAU - FRANCHARD</name>
    <desc><![CDATA[Franchard avec J-P]]></desc>
  </metadata>
  <trk>
    <name><![CDATA[--Barbizon-- OR-5496172:Franchard]]></name>
    <trkseg>
      <trkpt lat="48.40896" lon="2.63473">
        <ele>139</ele>
        <time>2015-11-29T13:40:48Z</time>
      </trkpt>
      <trkpt lat="48.40895" lon="2.63461">
        <ele>139</ele>
        <time>2015-11-29T13:42:48Z</time>
      </trkpt>
      <trkpt lat="48.40891" lon="2.63451">
        <ele>139</ele>
        <time>2015-11-29T13:44:48Z</time>
      </trkpt>
      <trkpt lat="48.40883" lon="2.63432">
        <ele>139</ele>
        <time>2015-11-29T13:46:48Z</time>
      </trkpt>
      <trkpt lat="48.40884" lon="2.63409">
        <ele>138</ele>
        <time>2015-11-29T13:48:48Z</time>
      </trkpt>
      <trkpt lat="48.40884" lon="2.6339">
        <ele>138</ele>
        <time>2015-11-29T13:50:48Z</time>
      </trkpt>
      <trkpt lat="48.40883" lon="2.63372">
        <ele>138</ele>
        <time>2015-11-29T13:52:48Z</time>
      </trkpt>
      <trkpt lat="48.40874" lon="2.63344">
        <ele>137</ele>
        <time>2015-11-29T13:54:48Z</time>
      </trkpt>
      <trkpt lat="48.4086" lon="2.63307">
        <ele>136</ele>
        <time>2015-11-29T13:56:48Z</time>
      </trkpt>
      <trkpt lat="48.40857" lon="2.63297">
        <ele>135</ele>
        <time>2015-11-29T13:58:48Z</time>
      </trkpt>
      <trkpt lat="48.40856" lon="2.6329">
        <ele>135</ele>
        <time>2015-11-29T14:00:48Z</time>
      </trkpt>
      <trkpt lat="48.40869" lon="2.63234">
        <ele>134</ele>
        <time>2015-11-29T14:02:48Z</time>
      </trkpt>
      <trkpt lat="48.40877" lon="2.63226">
        <ele>134</ele>
        <time>2015-11-29T14:04:48Z</time>
      </trkpt>
      <trkpt lat="48.40893" lon="2.63215">
        <ele>134</ele>
        <time>2015-11-29T14:06:48Z</time>
      </trkpt>
      <trkpt lat="48.4091" lon="2.63204">
        <ele>134</ele>
        <time>2015-11-29T14:08:48Z</time>
      </trkpt>
      <trkpt lat="48.4092" lon="2.63195">
        <ele>135</ele>
        <time>2015-11-29T14:10:48Z</time>
      </trkpt>
      <trkpt lat="48.40931" lon="2.63185">
        <ele>135</ele>
        <time>2015-11-29T14:12:48Z</time>
      </trkpt>
      <trkpt lat="48.40947" lon="2.63158">
        <ele>136</ele>
        <time>2015-11-29T14:14:48Z</time>
      </trkpt>
      <trkpt lat="48.40964" lon="2.63137">
        <ele>137</ele>
        <time>2015-11-29T14:16:48Z</time>
      </trkpt>
      <trkpt lat="48.40984" lon="2.63111">
        <ele>138</ele>
        <time>2015-11-29T14:18:48Z</time>
      </trkpt>
      <trkpt lat="48.41018" lon="2.63065">
        <ele>138</ele>
        <time>2015-11-29T14:20:48Z</time>
      </trkpt>
      <trkpt lat="48.41017" lon="2.6303">
        <ele>137</ele>
        <time>2015-11-29T14:22:48Z</time>
      </trkpt>
      <trkpt lat="48.41016" lon="2.63013">
        <ele>137</ele>
        <time>2015-11-29T14:24:48Z</time>
      </trkpt>
      <trkpt lat="48.41011" lon="2.62994">
        <ele>136</ele>
        <time>2015-11-29T14:26:48Z</time>
      </trkpt>
      <trkpt lat="48.41006" lon="2.62974">
        <ele>135</ele>
        <time>2015-11-29T14:28:48Z</time>
      </trkpt>
      <trkpt lat="48.40997" lon="2.62943">
        <ele>134</ele>
        <time>2015-11-29T14:30:48Z</time>
      </trkpt>
      <trkpt lat="48.40989" lon="2.62892">
        <ele>132</ele>
        <time>2015-11-29T14:32:48Z</time>
      </trkpt>
      <trkpt lat="48.40957" lon="2.62714">
        <ele>131</ele>
        <time>2015-11-29T14:34:48Z</time>
      </trkpt>
      <trkpt lat="48.40956" lon="2.62671">
        <ele>131</ele>
        <time>2015-11-29T14:36:48Z</time>
      </trkpt>
      <trkpt lat="48.4097" lon="2.62555">
        <ele>128</ele>
        <time>2015-11-29T14:38:48Z</time>
      </trkpt>
      <trkpt lat="48.40975" lon="2.62534">
        <ele>128</ele>
        <time>2015-11-29T14:40:48Z</time>
      </trkpt>
      <trkpt lat="48.41044" lon="2.62382">
        <ele>129</ele>
        <time>2015-11-29T14:42:48Z</time>
      </trkpt>
      <trkpt lat="48.41055" lon="2.62352">
        <ele>129</ele>
        <time>2015-11-29T14:44:48Z</time>
      </trkpt>
      <trkpt lat="48.41059" lon="2.62327">
        <ele>128</ele>
        <time>2015-11-29T14:46:48Z</time>
      </trkpt>
      <trkpt lat="48.41061" lon="2.62256">
        <ele>124</ele>
        <time>2015-11-29T14:48:48Z</time>
      </trkpt>
      <trkpt lat="48.41061" lon="2.62197">
        <ele>119</ele>
        <time>2015-11-29T14:50:48Z</time>
      </trkpt>
      <trkpt lat="48.41062" lon="2.62132">
        <ele>116</ele>
        <time>2015-11-29T14:52:48Z</time>
      </trkpt>
      <trkpt lat="48.41065" lon="2.62074">
        <ele>115</ele>
        <time>2015-11-29T14:54:48Z</time>
      </trkpt>
      <trkpt lat="48.41075" lon="2.61975">
        <ele>111</ele>
        <time>2015-11-29T14:56:48Z</time>
      </trkpt>
      <trkpt lat="48.41086" lon="2.61889">
        <ele>107</ele>
        <time>2015-11-29T14:58:48Z</time>
      </trkpt>
      <trkpt lat="48.41104" lon="2.61793">
        <ele>104</ele>
        <time>2015-11-29T15:00:48Z</time>
      </trkpt>
      <trkpt lat="48.41126" lon="2.61688">
        <ele>104</ele>
        <time>2015-11-29T15:02:48Z</time>
      </trkpt>
      <trkpt lat="48.41163" lon="2.61495">
        <ele>96</ele>
        <time>2015-11-29T15:04:48Z</time>
      </trkpt>
      <trkpt lat="48.41158" lon="2.61453">
        <ele>96</ele>
        <time>2015-11-29T15:06:48Z</time>
      </trkpt>
      <trkpt lat="48.41141" lon="2.61268">
        <ele>97</ele>
        <time>2015-11-29T15:08:48Z</time>
      </trkpt>
      <trkpt lat="48.41132" lon="2.61184">
        <ele>96</ele>
        <time>2015-11-29T15:10:48Z</time>
      </trkpt>
      <trkpt lat="48.41122" lon="2.61036">
        <ele>94</ele>
        <time>2015-11-29T15:12:48Z</time>
      </trkpt>
      <trkpt lat="48.41116" lon="2.6095">
        <ele>94</ele>
        <time>2015-11-29T15:14:48Z</time>
      </trkpt>
      <trkpt lat="48.41112" lon="2.60921">
        <ele>94</ele>
        <time>2015-11-29T15:16:48Z</time>
      </trkpt>
      <trkpt lat="48.41105" lon="2.60886">
        <ele>94</ele>
        <time>2015-11-29T15:18:48Z</time>
      </trkpt>
      <trkpt lat="48.411" lon="2.60866">
        <ele>95</ele>
        <time>2015-11-29T15:20:48Z</time>
      </trkpt>
      <trkpt lat="48.41096" lon="2.60855">
        <ele>95</ele>
        <time>2015-11-29T15:22:48Z</time>
      </trkpt>
      <trkpt lat="48.41091" lon="2.60839">
        <ele>95</ele>
        <time>2015-11-29T15:24:48Z</time>
      </trkpt>
      <trkpt lat="48.41077" lon="2.6083">
        <ele>95</ele>
        <time>2015-11-29T15:26:48Z</time>
      </trkpt>
      <trkpt lat="48.41063" lon="2.6081">
        <ele>95</ele>
        <time>2015-11-29T15:28:48Z</time>
      </trkpt>
      <trkpt lat="48.41051" lon="2.60805">
        <ele>95</ele>
        <time>2015-11-29T15:30:48Z</time>
      </trkpt>
      <trkpt lat="48.41039" lon="2.60805">
        <ele>95</ele>
        <time>2015-11-29T15:32:48Z</time>
      </trkpt>
      <trkpt lat="48.4103" lon="2.60806">
        <ele>96</ele>
        <time>2015-11-29T15:34:48Z</time>
      </trkpt>
      <trkpt lat="48.41025" lon="2.60807">
        <ele>96</ele>
        <time>2015-11-29T15:36:48Z</time>
      </trkpt>
      <trkpt lat="48.41018" lon="2.60802">
        <ele>96</ele>
        <time>2015-11-29T15:38:48Z</time>
      </trkpt>
      <trkpt lat="48.41012" lon="2.60794">
        <ele>95</ele>
        <time>2015-11-29T15:40:48Z</time>
      </trkpt>
      <trkpt lat="48.40999" lon="2.60791">
        <ele>96</ele>
        <time>2015-11-29T15:42:48Z</time>
      </trkpt>
      <trkpt lat="48.40962" lon="2.60782">
        <ele>98</ele>
        <time>2015-11-29T15:44:48Z</time>
      </trkpt>
      <trkpt lat="48.40949" lon="2.60781">
        <ele>99</ele>
        <time>2015-11-29T15:46:48Z</time>
      </trkpt>
      <trkpt lat="48.4092" lon="2.60781">
        <ele>102</ele>
        <time>2015-11-29T15:48:48Z</time>
      </trkpt>
      <trkpt lat="48.40881" lon="2.6079">
        <ele>104</ele>
        <time>2015-11-29T15:50:48Z</time>
      </trkpt>
      <trkpt lat="48.40863" lon="2.60796">
        <ele>105</ele>
        <time>2015-11-29T15:52:48Z</time>
      </trkpt>
      <trkpt lat="48.40845" lon="2.60798">
        <ele>105</ele>
        <time>2015-11-29T15:54:48Z</time>
      </trkpt>
      <trkpt lat="48.40837" lon="2.60799">
        <ele>106</ele>
        <time>2015-11-29T15:56:48Z</time>
      </trkpt>
      <trkpt lat="48.40819" lon="2.60809">
        <ele>108</ele>
        <time>2015-11-29T15:58:48Z</time>
      </trkpt>
      <trkpt lat="48.40804" lon="2.60819">
        <ele>109</ele>
        <time>2015-11-29T16:00:48Z</time>
      </trkpt>
      <trkpt lat="48.40789" lon="2.60819">
        <ele>111</ele>
        <time>2015-11-29T16:02:48Z</time>
      </trkpt>
      <trkpt lat="48.4077" lon="2.60818">
        <ele>112</ele>
        <time>2015-11-29T16:04:48Z</time>
      </trkpt>
      <trkpt lat="48.4078" lon="2.60729">
        <ele>112</ele>
        <time>2015-11-29T16:06:48Z</time>
      </trkpt>
      <trkpt lat="48.40789" lon="2.60653">
        <ele>111</ele>
        <time>2015-11-29T16:08:48Z</time>
      </trkpt>
      <trkpt lat="48.40775" lon="2.60653">
        <ele>113</ele>
        <time>2015-11-29T16:10:48Z</time>
      </trkpt>
      <trkpt lat="48.40757" lon="2.6066">
        <ele>116</ele>
        <time>2015-11-29T16:12:48Z</time>
      </trkpt>
      <trkpt lat="48.40743" lon="2.60666">
        <ele>118</ele>
        <time>2015-11-29T16:14:48Z</time>
      </trkpt>
      <trkpt lat="48.40733" lon="2.60671">
        <ele>119</ele>
        <time>2015-11-29T16:16:48Z</time>
      </trkpt>
      <trkpt lat="48.40723" lon="2.60676">
        <ele>121</ele>
        <time>2015-11-29T16:18:48Z</time>
      </trkpt>
      <trkpt lat="48.40708" lon="2.60688">
        <ele>123</ele>
        <time>2015-11-29T16:20:48Z</time>
      </trkpt>
      <trkpt lat="48.40694" lon="2.60706">
        <ele>125</ele>
        <time>2015-11-29T16:22:48Z</time>
      </trkpt>
      <trkpt lat="48.40673" lon="2.60729">
        <ele>128</ele>
        <time>2015-11-29T16:24:48Z</time>
      </trkpt>
      <trkpt lat="48.40673" lon="2.60709">
        <ele>128</ele>
        <time>2015-11-29T16:26:48Z</time>
      </trkpt>
      <trkpt lat="48.40674" lon="2.60676">
        <ele>128</ele>
        <time>2015-11-29T16:28:48Z</time>
      </trkpt>
      <trkpt lat="48.40674" lon="2.60665">
        <ele>128</ele>
        <time>2015-11-29T16:30:48Z</time>
      </trkpt>
      <trkpt lat="48.40668" lon="2.60639">
        <ele>128</ele>
        <time>2015-11-29T16:32:48Z</time>
      </trkpt>
      <trkpt lat="48.40664" lon="2.60623">
        <ele>128</ele>
        <time>2015-11-29T16:34:48Z</time>
      </trkpt>
      <trkpt lat="48.40665" lon="2.60611">
        <ele>128</ele>
        <time>2015-11-29T16:36:48Z</time>
      </trkpt>
      <trkpt lat="48.40668" lon="2.60599">
        <ele>127</ele>
        <time>2015-11-29T16:38:48Z</time>
      </trkpt>
      <trkpt lat="48.40686" lon="2.60566">
        <ele>124</ele>
        <time>2015-11-29T16:40:48Z</time>
      </trkpt>
      <trkpt lat="48.40688" lon="2.60548">
        <ele>124</ele>
        <time>2015-11-29T16:42:48Z</time>
      </trkpt>
      <trkpt lat="48.40688" lon="2.60495">
        <ele>124</ele>
        <time>2015-11-29T16:44:48Z</time>
      </trkpt>
      <trkpt lat="48.40689" lon="2.6048">
        <ele>124</ele>
        <time>2015-11-29T16:46:48Z</time>
      </trkpt>
      <trkpt lat="48.40691" lon="2.60441">
        <ele>124</ele>
        <time>2015-11-29T16:48:48Z</time>
      </trkpt>
      <trkpt lat="48.40691" lon="2.60416">
        <ele>124</ele>
        <time>2015-11-29T16:50:48Z</time>
      </trkpt>
      <trkpt lat="48.40688" lon="2.60408">
        <ele>124</ele>
        <time>2015-11-29T16:52:48Z</time>
      </trkpt>
      <trkpt lat="48.4067" lon="2.60391">
        <ele>127</ele>
        <time>2015-11-29T16:54:48Z</time>
      </trkpt>
      <trkpt lat="48.40649" lon="2.60369">
        <ele>128</ele>
        <time>2015-11-29T16:56:48Z</time>
      </trkpt>
      <trkpt lat="48.40634" lon="2.60357">
        <ele>128</ele>
        <time>2015-11-29T16:58:48Z</time>
      </trkpt>
      <trkpt lat="48.40616" lon="2.60331">
        <ele>128</ele>
        <time>2015-11-29T17:00:48Z</time>
      </trkpt>
      <trkpt lat="48.40607" lon="2.60322">
        <ele>128</ele>
        <time>2015-11-29T17:02:48Z</time>
      </trkpt>
      <trkpt lat="48.40605" lon="2.60312">
        <ele>128</ele>
        <time>2015-11-29T17:04:48Z</time>
      </trkpt>
      <trkpt lat="48.40606" lon="2.60277">
        <ele>129</ele>
        <time>2015-11-29T17:06:48Z</time>
      </trkpt>
      <trkpt lat="48.40632" lon="2.60146">
        <ele>126</ele>
        <time>2015-11-29T17:08:48Z</time>
      </trkpt>
      <trkpt lat="48.40648" lon="2.60076">
        <ele>126</ele>
        <time>2015-11-29T17:10:48Z</time>
      </trkpt>
      <trkpt lat="48.40658" lon="2.60022">
        <ele>127</ele>
        <time>2015-11-29T17:12:48Z</time>
      </trkpt>
      <trkpt lat="48.40663" lon="2.59979">
        <ele>127</ele>
        <time>2015-11-29T17:14:48Z</time>
      </trkpt>
      <trkpt lat="48.40664" lon="2.59959">
        <ele>128</ele>
        <time>2015-11-29T17:16:48Z</time>
      </trkpt>
      <trkpt lat="48.40656" lon="2.59915">
        <ele>128</ele>
        <time>2015-11-29T17:18:48Z</time>
      </trkpt>
      <trkpt lat="48.40646" lon="2.59888">
        <ele>128</ele>
        <time>2015-11-29T17:20:48Z</time>
      </trkpt>
      <trkpt lat="48.40632" lon="2.59863">
        <ele>128</ele>
        <time>2015-11-29T17:22:48Z</time>
      </trkpt>
      <trkpt lat="48.40608" lon="2.59836">
        <ele>128</ele>
        <time>2015-11-29T17:24:48Z</time>
      </trkpt>
      <trkpt lat="48.40597" lon="2.59825">
        <ele>128</ele>
        <time>2015-11-29T17:26:48Z</time>
      </trkpt>
      <trkpt lat="48.40591" lon="2.59823">
        <ele>128</ele>
        <time>2015-11-29T17:28:48Z</time>
      </trkpt>
      <trkpt lat="48.40616" lon="2.59799">
        <ele>127</ele>
        <time>2015-11-29T17:30:48Z</time>
      </trkpt>
      <trkpt lat="48.40635" lon="2.59775">
        <ele>125</ele>
        <time>2015-11-29T17:32:48Z</time>
      </trkpt>
      <trkpt lat="48.40654" lon="2.59751">
        <ele>124</ele>
        <time>2015-11-29T17:34:48Z</time>
      </trkpt>
      <trkpt lat="48.40649" lon="2.59744">
        <ele>124</ele>
        <time>2015-11-29T17:36:48Z</time>
      </trkpt>
      <trkpt lat="48.40649" lon="2.59733">
        <ele>124</ele>
        <time>2015-11-29T17:38:48Z</time>
      </trkpt>
      <trkpt lat="48.40651" lon="2.59715">
        <ele>124</ele>
        <time>2015-11-29T17:40:48Z</time>
      </trkpt>
      <trkpt lat="48.40652" lon="2.59696">
        <ele>124</ele>
        <time>2015-11-29T17:42:48Z</time>
      </trkpt>
      <trkpt lat="48.40649" lon="2.59671">
        <ele>124</ele>
        <time>2015-11-29T17:44:48Z</time>
      </trkpt>
      <trkpt lat="48.40647" lon="2.59654">
        <ele>124</ele>
        <time>2015-11-29T17:46:48Z</time>
      </trkpt>
      <trkpt lat="48.40642" lon="2.59632">
        <ele>124</ele>
        <time>2015-11-29T17:48:48Z</time>
      </trkpt>
      <trkpt lat="48.40642" lon="2.59619">
        <ele>124</ele>
        <time>2015-11-29T17:50:48Z</time>
      </trkpt>
      <trkpt lat="48.40644" lon="2.59606">
        <ele>124</ele>
        <time>2015-11-29T17:52:48Z</time>
      </trkpt>
      <trkpt lat="48.40657" lon="2.59588">
        <ele>124</ele>
        <time>2015-11-29T17:54:48Z</time>
      </trkpt>
      <trkpt lat="48.40672" lon="2.59565">
        <ele>124</ele>
        <time>2015-11-29T17:56:48Z</time>
      </trkpt>
      <trkpt lat="48.40681" lon="2.59549">
        <ele>122</ele>
        <time>2015-11-29T17:58:48Z</time>
      </trkpt>
      <trkpt lat="48.40689" lon="2.59532">
        <ele>121</ele>
        <time>2015-11-29T18:00:48Z</time>
      </trkpt>
      <trkpt lat="48.40691" lon="2.59521">
        <ele>121</ele>
        <time>2015-11-29T18:02:48Z</time>
      </trkpt>
      <trkpt lat="48.40692" lon="2.59504">
        <ele>120</ele>
        <time>2015-11-29T18:04:48Z</time>
      </trkpt>
      <trkpt lat="48.40694" lon="2.59493">
        <ele>120</ele>
        <time>2015-11-29T18:06:48Z</time>
      </trkpt>
      <trkpt lat="48.40692" lon="2.59474">
        <ele>120</ele>
        <time>2015-11-29T18:08:48Z</time>
      </trkpt>
      <trkpt lat="48.40687" lon="2.5946">
        <ele>120</ele>
        <time>2015-11-29T18:10:48Z</time>
      </trkpt>
      <trkpt lat="48.40682" lon="2.59446">
        <ele>120</ele>
        <time>2015-11-29T18:12:48Z</time>
      </trkpt>
      <trkpt lat="48.4067" lon="2.59433">
        <ele>121</ele>
        <time>2015-11-29T18:14:48Z</time>
      </trkpt>
      <trkpt lat="48.40658" lon="2.59414">
        <ele>122</ele>
        <time>2015-11-29T18:16:48Z</time>
      </trkpt>
      <trkpt lat="48.40649" lon="2.59397">
        <ele>122</ele>
        <time>2015-11-29T18:18:48Z</time>
      </trkpt>
      <trkpt lat="48.40642" lon="2.59379">
        <ele>122</ele>
        <time>2015-11-29T18:20:48Z</time>
      </trkpt>
      <trkpt lat="48.40636" lon="2.59353">
        <ele>122</ele>
        <time>2015-11-29T18:22:48Z</time>
      </trkpt>
      <trkpt lat="48.4063" lon="2.59329">
        <ele>122</ele>
        <time>2015-11-29T18:24:48Z</time>
      </trkpt>
      <trkpt lat="48.40631" lon="2.59305">
        <ele>122</ele>
        <time>2015-11-29T18:26:48Z</time>
      </trkpt>
      <trkpt lat="48.40633" lon="2.59292">
        <ele>122</ele>
        <time>2015-11-29T18:28:48Z</time>
      </trkpt>
      <trkpt lat="48.40636" lon="2.59269">
        <ele>122</ele>
        <time>2015-11-29T18:30:48Z</time>
      </trkpt>
      <trkpt lat="48.40642" lon="2.59245">
        <ele>122</ele>
        <time>2015-11-29T18:32:48Z</time>
      </trkpt>
      <trkpt lat="48.40646" lon="2.59229">
        <ele>121</ele>
        <time>2015-11-29T18:34:48Z</time>
      </trkpt>
      <trkpt lat="48.40644" lon="2.59219">
        <ele>121</ele>
        <time>2015-11-29T18:36:48Z</time>
      </trkpt>
      <trkpt lat="48.40643" lon="2.59204">
        <ele>120</ele>
        <time>2015-11-29T18:38:48Z</time>
      </trkpt>
      <trkpt lat="48.40635" lon="2.59198">
        <ele>120</ele>
        <time>2015-11-29T18:40:48Z</time>
      </trkpt>
      <trkpt lat="48.40628" lon="2.59191">
        <ele>119</ele>
        <time>2015-11-29T18:42:48Z</time>
      </trkpt>
      <trkpt lat="48.40621" lon="2.59179">
        <ele>118</ele>
        <time>2015-11-29T18:44:48Z</time>
      </trkpt>
      <trkpt lat="48.40618" lon="2.59166">
        <ele>117</ele>
        <time>2015-11-29T18:46:48Z</time>
      </trkpt>
      <trkpt lat="48.40618" lon="2.5915">
        <ele>116</ele>
        <time>2015-11-29T18:48:48Z</time>
      </trkpt>
      <trkpt lat="48.4062" lon="2.5913">
        <ele>115</ele>
        <time>2015-11-29T18:50:48Z</time>
      </trkpt>
      <trkpt lat="48.40626" lon="2.59101">
        <ele>115</ele>
        <time>2015-11-29T18:52:48Z</time>
      </trkpt>
      <trkpt lat="48.4063" lon="2.59079">
        <ele>114</ele>
        <time>2015-11-29T18:54:48Z</time>
      </trkpt>
      <trkpt lat="48.40632" lon="2.59061">
        <ele>115</ele>
        <time>2015-11-29T18:56:48Z</time>
      </trkpt>
      <trkpt lat="48.40631" lon="2.59044">
        <ele>114</ele>
        <time>2015-11-29T18:58:48Z</time>
      </trkpt>
      <trkpt lat="48.40625" lon="2.59026">
        <ele>113</ele>
        <time>2015-11-29T19:00:48Z</time>
      </trkpt>
      <trkpt lat="48.40617" lon="2.59013">
        <ele>112</ele>
        <time>2015-11-29T19:02:48Z</time>
      </trkpt>
      <trkpt lat="48.40598" lon="2.59005">
        <ele>108</ele>
        <time>2015-11-29T19:04:48Z</time>
      </trkpt>
      <trkpt lat="48.4058" lon="2.59008">
        <ele>106</ele>
        <time>2015-11-29T19:06:48Z</time>
      </trkpt>
      <trkpt lat="48.40567" lon="2.59009">
        <ele>104</ele>
        <time>2015-11-29T19:08:48Z</time>
      </trkpt>
      <trkpt lat="48.40558" lon="2.59008">
        <ele>103</ele>
        <time>2015-11-29T19:10:48Z</time>
      </trkpt>
      <trkpt lat="48.40551" lon="2.59004">
        <ele>102</ele>
        <time>2015-11-29T19:12:48Z</time>
      </trkpt>
      <trkpt lat="48.40539" lon="2.58977">
        <ele>100</ele>
        <time>2015-11-29T19:14:48Z</time>
      </trkpt>
      <trkpt lat="48.40528" lon="2.58959">
        <ele>99</ele>
        <time>2015-11-29T19:16:48Z</time>
      </trkpt>
      <trkpt lat="48.40515" lon="2.58948">
        <ele>97</ele>
        <time>2015-11-29T19:18:48Z</time>
      </trkpt>
      <trkpt lat="48.40501" lon="2.58941">
        <ele>95</ele>
        <time>2015-11-29T19:20:48Z</time>
      </trkpt>
      <trkpt lat="48.40493" lon="2.58934">
        <ele>95</ele>
        <time>2015-11-29T19:22:48Z</time>
      </trkpt>
      <trkpt lat="48.40486" lon="2.5893">
        <ele>95</ele>
        <time>2015-11-29T19:24:48Z</time>
      </trkpt>
      <trkpt lat="48.40484" lon="2.58949">
        <ele>95</ele>
        <time>2015-11-29T19:26:48Z</time>
      </trkpt>
      <trkpt lat="48.40479" lon="2.59041">
        <ele>96</ele>
        <time>2015-11-29T19:28:48Z</time>
      </trkpt>
      <trkpt lat="48.40478" lon="2.59067">
        <ele>97</ele>
        <time>2015-11-29T19:30:48Z</time>
      </trkpt>
      <trkpt lat="48.40477" lon="2.59082">
        <ele>97</ele>
        <time>2015-11-29T19:32:48Z</time>
      </trkpt>
      <trkpt lat="48.40473" lon="2.59113">
        <ele>98</ele>
        <time>2015-11-29T19:34:48Z</time>
      </trkpt>
      <trkpt lat="48.40473" lon="2.5914">
        <ele>99</ele>
        <time>2015-11-29T19:36:48Z</time>
      </trkpt>
      <trkpt lat="48.40477" lon="2.59179">
        <ele>101</ele>
        <time>2015-11-29T19:38:48Z</time>
      </trkpt>
      <trkpt lat="48.40483" lon="2.59223">
        <ele>101</ele>
        <time>2015-11-29T19:40:48Z</time>
      </trkpt>
      <trkpt lat="48.40487" lon="2.59244">
        <ele>102</ele>
        <time>2015-11-29T19:42:48Z</time>
      </trkpt>
      <trkpt lat="48.40489" lon="2.59295">
        <ele>103</ele>
        <time>2015-11-29T19:44:48Z</time>
      </trkpt>
      <trkpt lat="48.40492" lon="2.59326">
        <ele>104</ele>
        <time>2015-11-29T19:46:48Z</time>
      </trkpt>
      <trkpt lat="48.40496" lon="2.5935">
        <ele>104</ele>
        <time>2015-11-29T19:48:48Z</time>
      </trkpt>
      <trkpt lat="48.405" lon="2.59382">
        <ele>104</ele>
        <time>2015-11-29T19:50:48Z</time>
      </trkpt>
      <trkpt lat="48.40502" lon="2.59398">
        <ele>105</ele>
        <time>2015-11-29T19:52:48Z</time>
      </trkpt>
      <trkpt lat="48.40509" lon="2.59422">
        <ele>106</ele>
        <time>2015-11-29T19:54:48Z</time>
      </trkpt>
      <trkpt lat="48.40514" lon="2.5943">
        <ele>107</ele>
        <time>2015-11-29T19:56:48Z</time>
      </trkpt>
      <trkpt lat="48.40508" lon="2.59448">
        <ele>107</ele>
        <time>2015-11-29T19:58:48Z</time>
      </trkpt>
      <trkpt lat="48.40508" lon="2.59481">
        <ele>108</ele>
        <time>2015-11-29T20:00:48Z</time>
      </trkpt>
      <trkpt lat="48.40503" lon="2.59497">
        <ele>108</ele>
        <time>2015-11-29T20:02:48Z</time>
      </trkpt>
      <trkpt lat="48.40498" lon="2.59521">
        <ele>110</ele>
        <time>2015-11-29T20:04:48Z</time>
      </trkpt>
      <trkpt lat="48.40494" lon="2.59544">
        <ele>112</ele>
        <time>2015-11-29T20:06:48Z</time>
      </trkpt>
      <trkpt lat="48.40491" lon="2.59557">
        <ele>113</ele>
        <time>2015-11-29T20:08:48Z</time>
      </trkpt>
      <trkpt lat="48.40487" lon="2.59571">
        <ele>114</ele>
        <time>2015-11-29T20:10:48Z</time>
      </trkpt>
      <trkpt lat="48.40475" lon="2.59595">
        <ele>117</ele>
        <time>2015-11-29T20:12:48Z</time>
      </trkpt>
      <trkpt lat="48.4047" lon="2.59608">
        <ele>118</ele>
        <time>2015-11-29T20:14:48Z</time>
      </trkpt>
      <trkpt lat="48.40461" lon="2.59617">
        <ele>119</ele>
        <time>2015-11-29T20:16:48Z</time>
      </trkpt>
      <trkpt lat="48.40454" lon="2.59627">
        <ele>120</ele>
        <time>2015-11-29T20:18:48Z</time>
      </trkpt>
      <trkpt lat="48.40449" lon="2.59638">
        <ele>120</ele>
        <time>2015-11-29T20:20:48Z</time>
      </trkpt>
      <trkpt lat="48.40448" lon="2.59652">
        <ele>120</ele>
        <time>2015-11-29T20:22:48Z</time>
      </trkpt>
      <trkpt lat="48.40448" lon="2.59663">
        <ele>121</ele>
        <time>2015-11-29T20:24:48Z</time>
      </trkpt>
      <trkpt lat="48.40444" lon="2.59686">
        <ele>121</ele>
        <time>2015-11-29T20:26:48Z</time>
      </trkpt>
      <trkpt lat="48.4044" lon="2.59704">
        <ele>122</ele>
        <time>2015-11-29T20:28:48Z</time>
      </trkpt>
      <trkpt lat="48.40428" lon="2.59736">
        <ele>122</ele>
        <time>2015-11-29T20:30:48Z</time>
      </trkpt>
      <trkpt lat="48.40418" lon="2.59757">
        <ele>122</ele>
        <time>2015-11-29T20:32:48Z</time>
      </trkpt>
      <trkpt lat="48.404" lon="2.59788">
        <ele>124</ele>
        <time>2015-11-29T20:34:48Z</time>
      </trkpt>
      <trkpt lat="48.40395" lon="2.59801">
        <ele>125</ele>
        <time>2015-11-29T20:36:48Z</time>
      </trkpt>
      <trkpt lat="48.40389" lon="2.59831">
        <ele>126</ele>
        <time>2015-11-29T20:38:48Z</time>
      </trkpt>
      <trkpt lat="48.40381" lon="2.59862">
        <ele>127</ele>
        <time>2015-11-29T20:40:48Z</time>
      </trkpt>
      <trkpt lat="48.40378" lon="2.599">
        <ele>127</ele>
        <time>2015-11-29T20:42:48Z</time>
      </trkpt>
      <trkpt lat="48.40376" lon="2.59922">
        <ele>128</ele>
        <time>2015-11-29T20:44:48Z</time>
      </trkpt>
      <trkpt lat="48.40373" lon="2.59975">
        <ele>128</ele>
        <time>2015-11-29T20:46:48Z</time>
      </trkpt>
      <trkpt lat="48.40369" lon="2.60023">
        <ele>129</ele>
        <time>2015-11-29T20:48:48Z</time>
      </trkpt>
      <trkpt lat="48.40366" lon="2.60075">
        <ele>129</ele>
        <time>2015-11-29T20:50:48Z</time>
      </trkpt>
      <trkpt lat="48.40367" lon="2.60103">
        <ele>130</ele>
        <time>2015-11-29T20:52:48Z</time>
      </trkpt>
      <trkpt lat="48.40376" lon="2.60134">
        <ele>130</ele>
        <time>2015-11-29T20:54:48Z</time>
      </trkpt>
      <trkpt lat="48.40379" lon="2.60153">
        <ele>130</ele>
        <time>2015-11-29T20:56:48Z</time>
      </trkpt>
      <trkpt lat="48.4038" lon="2.60165">
        <ele>130</ele>
        <time>2015-11-29T20:58:48Z</time>
      </trkpt>
      <trkpt lat="48.40378" lon="2.60197">
        <ele>130</ele>
        <time>2015-11-29T21:00:48Z</time>
      </trkpt>
      <trkpt lat="48.40376" lon="2.60226">
        <ele>130</ele>
        <time>2015-11-29T21:02:48Z</time>
      </trkpt>
      <trkpt lat="48.40372" lon="2.603">
        <ele>130</ele>
        <time>2015-11-29T21:04:48Z</time>
      </trkpt>
      <trkpt lat="48.40366" lon="2.60321">
        <ele>130</ele>
        <time>2015-11-29T21:06:48Z</time>
      </trkpt>
      <trkpt lat="48.40358" lon="2.60345">
        <ele>130</ele>
        <time>2015-11-29T21:08:48Z</time>
      </trkpt>
      <trkpt lat="48.40345" lon="2.60414">
        <ele>129</ele>
        <time>2015-11-29T21:10:48Z</time>
      </trkpt>
      <trkpt lat="48.40336" lon="2.60464">
        <ele>129</ele>
        <time>2015-11-29T21:12:48Z</time>
      </trkpt>
      <trkpt lat="48.40326" lon="2.60492">
        <ele>130</ele>
        <time>2015-11-29T21:14:48Z</time>
      </trkpt>
      <trkpt lat="48.40321" lon="2.60523">
        <ele>131</ele>
        <time>2015-11-29T21:16:48Z</time>
      </trkpt>
      <trkpt lat="48.40318" lon="2.6054">
        <ele>131</ele>
        <time>2015-11-29T21:18:48Z</time>
      </trkpt>
      <trkpt lat="48.40301" lon="2.60589">
        <ele>132</ele>
        <time>2015-11-29T21:20:48Z</time>
      </trkpt>
      <trkpt lat="48.40306" lon="2.60596">
        <ele>132</ele>
        <time>2015-11-29T21:22:48Z</time>
      </trkpt>
      <trkpt lat="48.40313" lon="2.60616">
        <ele>131</ele>
        <time>2015-11-29T21:24:48Z</time>
      </trkpt>
      <trkpt lat="48.40325" lon="2.60642">
        <ele>131</ele>
        <time>2015-11-29T21:26:48Z</time>
      </trkpt>
      <trkpt lat="48.40334" lon="2.6066">
        <ele>131</ele>
        <time>2015-11-29T21:28:48Z</time>
      </trkpt>
      <trkpt lat="48.40345" lon="2.60678">
        <ele>131</ele>
        <time>2015-11-29T21:30:48Z</time>
      </trkpt>
      <trkpt lat="48.40358" lon="2.60688">
        <ele>131</ele>
        <time>2015-11-29T21:32:48Z</time>
      </trkpt>
      <trkpt lat="48.40366" lon="2.60693">
        <ele>131</ele>
        <time>2015-11-29T21:34:48Z</time>
      </trkpt>
      <trkpt lat="48.40379" lon="2.60704">
        <ele>131</ele>
        <time>2015-11-29T21:36:48Z</time>
      </trkpt>
      <trkpt lat="48.40379" lon="2.60731">
        <ele>131</ele>
        <time>2015-11-29T21:38:48Z</time>
      </trkpt>
      <trkpt lat="48.40383" lon="2.60794">
        <ele>130</ele>
        <time>2015-11-29T21:40:48Z</time>
      </trkpt>
      <trkpt lat="48.40386" lon="2.60829">
        <ele>130</ele>
        <time>2015-11-29T21:42:48Z</time>
      </trkpt>
      <trkpt lat="48.40389" lon="2.60872">
        <ele>130</ele>
        <time>2015-11-29T21:44:48Z</time>
      </trkpt>
      <trkpt lat="48.40393" lon="2.60923">
        <ele>129</ele>
        <time>2015-11-29T21:46:48Z</time>
      </trkpt>
      <trkpt lat="48.40401" lon="2.60995">
        <ele>130</ele>
        <time>2015-11-29T21:48:48Z</time>
      </trkpt>
      <trkpt lat="48.4038" lon="2.60982">
        <ele>130</ele>
        <time>2015-11-29T21:50:48Z</time>
      </trkpt>
      <trkpt lat="48.40354" lon="2.60966">
        <ele>131</ele>
        <time>2015-11-29T21:52:48Z</time>
      </trkpt>
      <trkpt lat="48.40334" lon="2.60953">
        <ele>132</ele>
        <time>2015-11-29T21:54:48Z</time>
      </trkpt>
      <trkpt lat="48.40318" lon="2.60946">
        <ele>132</ele>
        <time>2015-11-29T21:56:48Z</time>
      </trkpt>
      <trkpt lat="48.40299" lon="2.60945">
        <ele>131</ele>
        <time>2015-11-29T21:58:48Z</time>
      </trkpt>
      <trkpt lat="48.40292" lon="2.60947">
        <ele>131</ele>
        <time>2015-11-29T22:00:48Z</time>
      </trkpt>
      <trkpt lat="48.40281" lon="2.60947">
        <ele>131</ele>
        <time>2015-11-29T22:02:48Z</time>
      </trkpt>
      <trkpt lat="48.40266" lon="2.60938">
        <ele>131</ele>
        <time>2015-11-29T22:04:48Z</time>
      </trkpt>
      <trkpt lat="48.4025" lon="2.60933">
        <ele>130</ele>
        <time>2015-11-29T22:06:48Z</time>
      </trkpt>
      <trkpt lat="48.40233" lon="2.60927">
        <ele>129</ele>
        <time>2015-11-29T22:08:48Z</time>
      </trkpt>
      <trkpt lat="48.40215" lon="2.60925">
        <ele>128</ele>
        <time>2015-11-29T22:10:48Z</time>
      </trkpt>
      <trkpt lat="48.40191" lon="2.60926">
        <ele>127</ele>
        <time>2015-11-29T22:12:48Z</time>
      </trkpt>
      <trkpt lat="48.40137" lon="2.60912">
        <ele>125</ele>
        <time>2015-11-29T22:14:48Z</time>
      </trkpt>
      <trkpt lat="48.40121" lon="2.60906">
        <ele>125</ele>
        <time>2015-11-29T22:16:48Z</time>
      </trkpt>
      <trkpt lat="48.40108" lon="2.60906">
        <ele>125</ele>
        <time>2015-11-29T22:18:48Z</time>
      </trkpt>
      <trkpt lat="48.40106" lon="2.60922">
        <ele>125</ele>
        <time>2015-11-29T22:20:48Z</time>
      </trkpt>
      <trkpt lat="48.40102" lon="2.60933">
        <ele>125</ele>
        <time>2015-11-29T22:22:48Z</time>
      </trkpt>
      <trkpt lat="48.40101" lon="2.60957">
        <ele>125</ele>
        <time>2015-11-29T22:24:48Z</time>
      </trkpt>
      <trkpt lat="48.40101" lon="2.60975">
        <ele>125</ele>
        <time>2015-11-29T22:26:48Z</time>
      </trkpt>
      <trkpt lat="48.40101" lon="2.60993">
        <ele>125</ele>
        <time>2015-11-29T22:28:48Z</time>
      </trkpt>
      <trkpt lat="48.40102" lon="2.61009">
        <ele>126</ele>
        <time>2015-11-29T22:30:48Z</time>
      </trkpt>
      <trkpt lat="48.40105" lon="2.61026">
        <ele>126</ele>
        <time>2015-11-29T22:32:48Z</time>
      </trkpt>
      <trkpt lat="48.40092" lon="2.61025">
        <ele>126</ele>
        <time>2015-11-29T22:34:48Z</time>
      </trkpt>
      <trkpt lat="48.40074" lon="2.61044">
        <ele>126</ele>
        <time>2015-11-29T22:36:48Z</time>
      </trkpt>
      <trkpt lat="48.40046" lon="2.61089">
        <ele>127</ele>
        <time>2015-11-29T22:38:48Z</time>
      </trkpt>
      <trkpt lat="48.40023" lon="2.61133">
        <ele>127</ele>
        <time>2015-11-29T22:40:48Z</time>
      </trkpt>
      <trkpt lat="48.40003" lon="2.61177">
        <ele>126</ele>
        <time>2015-11-29T22:42:48Z</time>
      </trkpt>
      <trkpt lat="48.39962" lon="2.61353">
        <ele>131</ele>
        <time>2015-11-29T22:44:48Z</time>
      </trkpt>
      <trkpt lat="48.39942" lon="2.61436">
        <ele>133</ele>
        <time>2015-11-29T22:46:48Z</time>
      </trkpt>
      <trkpt lat="48.39905" lon="2.61587">
        <ele>131</ele>
        <time>2015-11-29T22:48:48Z</time>
      </trkpt>
      <trkpt lat="48.39873" lon="2.61706">
        <ele>133</ele>
        <time>2015-11-29T22:50:48Z</time>
      </trkpt>
      <trkpt lat="48.39875" lon="2.61731">
        <ele>133</ele>
        <time>2015-11-29T22:52:48Z</time>
      </trkpt>
      <trkpt lat="48.39873" lon="2.61758">
        <ele>133</ele>
        <time>2015-11-29T22:54:48Z</time>
      </trkpt>
      <trkpt lat="48.39865" lon="2.61785">
        <ele>133</ele>
        <time>2015-11-29T22:56:48Z</time>
      </trkpt>
      <trkpt lat="48.39861" lon="2.61812">
        <ele>133</ele>
        <time>2015-11-29T22:58:48Z</time>
      </trkpt>
      <trkpt lat="48.39854" lon="2.61838">
        <ele>133</ele>
        <time>2015-11-29T23:00:48Z</time>
      </trkpt>
      <trkpt lat="48.39844" lon="2.61873">
        <ele>134</ele>
        <time>2015-11-29T23:02:48Z</time>
      </trkpt>
      <trkpt lat="48.39836" lon="2.61893">
        <ele>134</ele>
        <time>2015-11-29T23:04:48Z</time>
      </trkpt>
      <trkpt lat="48.3982" lon="2.61913">
        <ele>135</ele>
        <time>2015-11-29T23:06:48Z</time>
      </trkpt>
      <trkpt lat="48.39794" lon="2.61953">
        <ele>136</ele>
        <time>2015-11-29T23:08:48Z</time>
      </trkpt>
      <trkpt lat="48.39772" lon="2.61967">
        <ele>137</ele>
        <time>2015-11-29T23:10:48Z</time>
      </trkpt>
      <trkpt lat="48.39672" lon="2.6205">
        <ele>138</ele>
        <time>2015-11-29T23:12:48Z</time>
      </trkpt>
      <trkpt lat="48.39539" lon="2.62152">
        <ele>135</ele>
        <time>2015-11-29T23:14:48Z</time>
      </trkpt>
      <trkpt lat="48.39576" lon="2.62482">
        <ele>137</ele>
        <time>2015-11-29T23:16:48Z</time>
      </trkpt>
      <trkpt lat="48.3959" lon="2.626">
        <ele>138</ele>
        <time>2015-11-29T23:18:48Z</time>
      </trkpt>
      <trkpt lat="48.39658" lon="2.63187">
        <ele>140</ele>
        <time>2015-11-29T23:20:48Z</time>
      </trkpt>
      <trkpt lat="48.3964" lon="2.63228">
        <ele>139</ele>
        <time>2015-11-29T23:22:48Z</time>
      </trkpt>
      <trkpt lat="48.39576" lon="2.63393">
        <ele>138</ele>
        <time>2015-11-29T23:24:48Z</time>
      </trkpt>
      <trkpt lat="48.39573" lon="2.635">
        <ele>138</ele>
        <time>2015-11-29T23:26:48Z</time>
      </trkpt>
      <trkpt lat="48.3952" lon="2.63527">
        <ele>138</ele>
        <time>2015-11-29T23:28:48Z</time>
      </trkpt>
      <trkpt lat="48.39475" lon="2.63741">
        <ele>133</ele>
        <time>2015-11-29T23:30:48Z</time>
      </trkpt>
      <trkpt lat="48.39455" lon="2.63794">
        <ele>131</ele>
        <time>2015-11-29T23:32:48Z</time>
      </trkpt>
      <trkpt lat="48.39449" lon="2.63837">
        <ele>129</ele>
        <time>2015-11-29T23:34:48Z</time>
      </trkpt>
      <trkpt lat="48.3945" lon="2.63873">
        <ele>127</ele>
        <time>2015-11-29T23:36:48Z</time>
      </trkpt>
      <trkpt lat="48.39458" lon="2.63872">
        <ele>127</ele>
        <time>2015-11-29T23:38:48Z</time>
      </trkpt>
      <trkpt lat="48.39468" lon="2.63865">
        <ele>129</ele>
        <time>2015-11-29T23:40:48Z</time>
      </trkpt>
      <trkpt lat="48.39519" lon="2.63863">
        <ele>131</ele>
        <time>2015-11-29T23:42:48Z</time>
      </trkpt>
      <trkpt lat="48.39534" lon="2.639">
        <ele>129</ele>
        <time>2015-11-29T23:44:48Z</time>
      </trkpt>
      <trkpt lat="48.39543" lon="2.6394">
        <ele>127</ele>
        <time>2015-11-29T23:46:48Z</time>
      </trkpt>
      <trkpt lat="48.3956" lon="2.64">
        <ele>124</ele>
        <time>2015-11-29T23:48:48Z</time>
      </trkpt>
      <trkpt lat="48.39566" lon="2.64046">
        <ele>122</ele>
        <time>2015-11-29T23:50:48Z</time>
      </trkpt>
      <trkpt lat="48.39571" lon="2.64082">
        <ele>121</ele>
        <time>2015-11-29T23:52:48Z</time>
      </trkpt>
      <trkpt lat="48.39576" lon="2.64131">
        <ele>119</ele>
        <time>2015-11-29T23:54:48Z</time>
      </trkpt>
      <trkpt lat="48.39586" lon="2.64166">
        <ele>119</ele>
        <time>2015-11-29T23:56:48Z</time>
      </trkpt>
      <trkpt lat="48.39594" lon="2.64176">
        <ele>117</ele>
        <time>2015-11-29T23:58:48Z</time>
      </trkpt>
      <trkpt lat="48.39596" lon="2.64165">
        <ele>118</ele>
        <time>2015-11-30T00:00:48Z</time>
      </trkpt>
      <trkpt lat="48.39607" lon="2.64134">
        <ele>118</ele>
        <time>2015-11-30T00:02:48Z</time>
      </trkpt>
      <trkpt lat="48.39613" lon="2.64101">
        <ele>118</ele>
        <time>2015-11-30T00:04:48Z</time>
      </trkpt>
      <trkpt lat="48.39606" lon="2.6399">
        <ele>122</ele>
        <time>2015-11-30T00:06:48Z</time>
      </trkpt>
      <trkpt lat="48.39598" lon="2.63848">
        <ele>128</ele>
        <time>2015-11-30T00:08:48Z</time>
      </trkpt>
      <trkpt lat="48.39592" lon="2.63795">
        <ele>132</ele>
        <time>2015-11-30T00:10:48Z</time>
      </trkpt>
      <trkpt lat="48.39583" lon="2.63752">
        <ele>135</ele>
        <time>2015-11-30T00:12:48Z</time>
      </trkpt>
      <trkpt lat="48.39574" lon="2.63719">
        <ele>136</ele>
        <time>2015-11-30T00:14:48Z</time>
      </trkpt>
      <trkpt lat="48.39574" lon="2.6351">
        <ele>138</ele>
        <time>2015-11-30T00:16:48Z</time>
      </trkpt>
      <trkpt lat="48.39581" lon="2.63494">
        <ele>138</ele>
        <time>2015-11-30T00:18:48Z</time>
      </trkpt>
      <trkpt lat="48.39603" lon="2.63488">
        <ele>137</ele>
        <time>2015-11-30T00:20:48Z</time>
      </trkpt>
      <trkpt lat="48.3961" lon="2.63509">
        <ele>137</ele>
        <time>2015-11-30T00:22:48Z</time>
      </trkpt>
      <trkpt lat="48.39633" lon="2.63529">
        <ele>136</ele>
        <time>2015-11-30T00:24:48Z</time>
      </trkpt>
      <trkpt lat="48.39664" lon="2.63538">
        <ele>134</ele>
        <time>2015-11-30T00:26:48Z</time>
      </trkpt>
      <trkpt lat="48.3968" lon="2.63546">
        <ele>133</ele>
        <time>2015-11-30T00:28:48Z</time>
      </trkpt>
      <trkpt lat="48.39691" lon="2.63591">
        <ele>131</ele>
        <time>2015-11-30T00:30:48Z</time>
      </trkpt>
      <trkpt lat="48.39699" lon="2.63599">
        <ele>130</ele>
        <time>2015-11-30T00:32:48Z</time>
      </trkpt>
      <trkpt lat="48.39713" lon="2.63601">
        <ele>128</ele>
        <time>2015-11-30T00:34:48Z</time>
      </trkpt>
      <trkpt lat="48.39728" lon="2.63599">
        <ele>127</ele>
        <time>2015-11-30T00:36:48Z</time>
      </trkpt>
      <trkpt lat="48.39747" lon="2.63586">
        <ele>126</ele>
        <time>2015-11-30T00:38:48Z</time>
      </trkpt>
      <trkpt lat="48.39757" lon="2.63578">
        <ele>126</ele>
        <time>2015-11-30T00:40:48Z</time>
      </trkpt>
      <trkpt lat="48.39764" lon="2.63578">
        <ele>126</ele>
        <time>2015-11-30T00:42:48Z</time>
      </trkpt>
      <trkpt lat="48.39774" lon="2.63585">
        <ele>126</ele>
        <time>2015-11-30T00:44:48Z</time>
      </trkpt>
      <trkpt lat="48.39778" lon="2.63604">
        <ele>124</ele>
        <time>2015-11-30T00:46:48Z</time>
      </trkpt>
      <trkpt lat="48.39811" lon="2.63648">
        <ele>119</ele>
        <time>2015-11-30T00:48:48Z</time>
      </trkpt>
      <trkpt lat="48.39834" lon="2.63709">
        <ele>114</ele>
        <time>2015-11-30T00:50:48Z</time>
      </trkpt>
      <trkpt lat="48.39853" lon="2.63708">
        <ele>116</ele>
        <time>2015-11-30T00:52:48Z</time>
      </trkpt>
      <trkpt lat="48.39873" lon="2.63696">
        <ele>120</ele>
        <time>2015-11-30T00:54:48Z</time>
      </trkpt>
      <trkpt lat="48.39889" lon="2.63696">
        <ele>121</ele>
        <time>2015-11-30T00:56:48Z</time>
      </trkpt>
      <trkpt lat="48.39904" lon="2.63701">
        <ele>123</ele>
        <time>2015-11-30T00:58:48Z</time>
      </trkpt>
      <trkpt lat="48.39915" lon="2.63702">
        <ele>124</ele>
        <time>2015-11-30T01:00:48Z</time>
      </trkpt>
      <trkpt lat="48.39924" lon="2.63698">
        <ele>125</ele>
        <time>2015-11-30T01:02:48Z</time>
      </trkpt>
      <trkpt lat="48.39933" lon="2.63694">
        <ele>126</ele>
        <time>2015-11-30T01:04:48Z</time>
      </trkpt>
      <trkpt lat="48.3994" lon="2.63685">
        <ele>127</ele>
        <time>2015-11-30T01:06:48Z</time>
      </trkpt>
      <trkpt lat="48.3995" lon="2.63658">
        <ele>128</ele>
        <time>2015-11-30T01:08:48Z</time>
      </trkpt>
      <trkpt lat="48.39961" lon="2.63638">
        <ele>129</ele>
        <time>2015-11-30T01:10:48Z</time>
      </trkpt>
      <trkpt lat="48.39972" lon="2.63626">
        <ele>129</ele>
        <time>2015-11-30T01:12:48Z</time>
      </trkpt>
      <trkpt lat="48.4" lon="2.63608">
        <ele>131</ele>
        <time>2015-11-30T01:14:48Z</time>
      </trkpt>
      <trkpt lat="48.40035" lon="2.63592">
        <ele>133</ele>
        <time>2015-11-30T01:16:48Z</time>
      </trkpt>
      <trkpt lat="48.40061" lon="2.63576">
        <ele>135</ele>
        <time>2015-11-30T01:18:48Z</time>
      </trkpt>
      <trkpt lat="48.4011" lon="2.63618">
        <ele>136</ele>
        <time>2015-11-30T01:20:48Z</time>
      </trkpt>
      <trkpt lat="48.40163" lon="2.63714">
        <ele>137</ele>
        <time>2015-11-30T01:22:48Z</time>
      </trkpt>
      <trkpt lat="48.4022" lon="2.63802">
        <ele>138</ele>
        <time>2015-11-30T01:24:48Z</time>
      </trkpt>
      <trkpt lat="48.40266" lon="2.63879">
        <ele>137</ele>
        <time>2015-11-30T01:26:48Z</time>
      </trkpt>
      <trkpt lat="48.40324" lon="2.63859">
        <ele>140</ele>
        <time>2015-11-30T01:28:48Z</time>
      </trkpt>
      <trkpt lat="48.40351" lon="2.63847">
        <ele>140</ele>
        <time>2015-11-30T01:30:48Z</time>
      </trkpt>
      <trkpt lat="48.40373" lon="2.63845">
        <ele>138</ele>
        <time>2015-11-30T01:32:48Z</time>
      </trkpt>
      <trkpt lat="48.40393" lon="2.63839">
        <ele>137</ele>
        <time>2015-11-30T01:34:48Z</time>
      </trkpt>
      <trkpt lat="48.40412" lon="2.63823">
        <ele>137</ele>
        <time>2015-11-30T01:36:48Z</time>
      </trkpt>
      <trkpt lat="48.40417" lon="2.63815">
        <ele>136</ele>
        <time>2015-11-30T01:38:48Z</time>
      </trkpt>
      <trkpt lat="48.40422" lon="2.63808">
        <ele>136</ele>
        <time>2015-11-30T01:40:48Z</time>
      </trkpt>
      <trkpt lat="48.40437" lon="2.6379">
        <ele>137</ele>
        <time>2015-11-30T01:42:48Z</time>
      </trkpt>
      <trkpt lat="48.40454" lon="2.6377">
        <ele>137</ele>
        <time>2015-11-30T01:44:48Z</time>
      </trkpt>
      <trkpt lat="48.40462" lon="2.63763">
        <ele>137</ele>
        <time>2015-11-30T01:46:48Z</time>
      </trkpt>
      <trkpt lat="48.40484" lon="2.63759">
        <ele>137</ele>
        <time>2015-11-30T01:48:48Z</time>
      </trkpt>
      <trkpt lat="48.40492" lon="2.63757">
        <ele>137</ele>
        <time>2015-11-30T01:50:48Z</time>
      </trkpt>
      <trkpt lat="48.40497" lon="2.6375">
        <ele>137</ele>
        <time>2015-11-30T01:52:48Z</time>
      </trkpt>
      <trkpt lat="48.40517" lon="2.63731">
        <ele>137</ele>
        <time>2015-11-30T01:54:48Z</time>
      </trkpt>
      <trkpt lat="48.40532" lon="2.63717">
        <ele>137</ele>
        <time>2015-11-30T01:56:48Z</time>
      </trkpt>
      <trkpt lat="48.40544" lon="2.6372">
        <ele>137</ele>
        <time>2015-11-30T01:58:48Z</time>
      </trkpt>
      <trkpt lat="48.40554" lon="2.63718">
        <ele>136</ele>
        <time>2015-11-30T02:00:48Z</time>
      </trkpt>
      <trkpt lat="48.40562" lon="2.63715">
        <ele>136</ele>
        <time>2015-11-30T02:02:48Z</time>
      </trkpt>
      <trkpt lat="48.40569" lon="2.63711">
        <ele>136</ele>
        <time>2015-11-30T02:04:48Z</time>
      </trkpt>
      <trkpt lat="48.40575" lon="2.63699">
        <ele>136</ele>
        <time>2015-11-30T02:06:48Z</time>
      </trkpt>
      <trkpt lat="48.40615" lon="2.63681">
        <ele>135</ele>
        <time>2015-11-30T02:08:48Z</time>
      </trkpt>
      <trkpt lat="48.40642" lon="2.6368">
        <ele>135</ele>
        <time>2015-11-30T02:10:48Z</time>
      </trkpt>
      <trkpt lat="48.40653" lon="2.63674">
        <ele>135</ele>
        <time>2015-11-30T02:12:48Z</time>
      </trkpt>
      <trkpt lat="48.40666" lon="2.63669">
        <ele>135</ele>
        <time>2015-11-30T02:14:48Z</time>
      </trkpt>
      <trkpt lat="48.40682" lon="2.63671">
        <ele>135</ele>
        <time>2015-11-30T02:16:48Z</time>
      </trkpt>
      <trkpt lat="48.40689" lon="2.63671">
        <ele>135</ele>
        <time>2015-11-30T02:18:48Z</time>
      </trkpt>
      <trkpt lat="48.40698" lon="2.63669">
        <ele>135</ele>
        <time>2015-11-30T02:20:48Z</time>
      </trkpt>
      <trkpt lat="48.40715" lon="2.63657">
        <ele>136</ele>
        <time>2015-11-30T02:22:48Z</time>
      </trkpt>
      <trkpt lat="48.40726" lon="2.6365">
        <ele>136</ele>
        <time>2015-11-30T02:24:48Z</time>
      </trkpt>
      <trkpt lat="48.40746" lon="2.63632">
        <ele>137</ele>
        <time>2015-11-30T02:26:48Z</time>
      </trkpt>
      <trkpt lat="48.40759" lon="2.63619">
        <ele>137</ele>
        <time>2015-11-30T02:28:48Z</time>
      </trkpt>
      <trkpt lat="48.40771" lon="2.63608">
        <ele>137</ele>
        <time>2015-11-30T02:30:48Z</time>
      </trkpt>
      <trkpt lat="48.40781" lon="2.63601">
        <ele>137</ele>
        <time>2015-11-30T02:32:48Z</time>
      </trkpt>
      <trkpt lat="48.40798" lon="2.63595">
        <ele>138</ele>
        <time>2015-11-30T02:34:48Z</time>
      </trkpt>
      <trkpt lat="48.40799" lon="2.63575">
        <ele>138</ele>
        <time>2015-11-30T02:36:48Z</time>
      </trkpt>
      <trkpt lat="48.4081" lon="2.63591">
        <ele>138</ele>
        <time>2015-11-30T02:38:48Z</time>
      </trkpt>
      <trkpt lat="48.40815" lon="2.636">
        <ele>137</ele>
        <time>2015-11-30T02:40:48Z</time>
      </trkpt>
      <trkpt lat="48.40824" lon="2.63606">
        <ele>137</ele>
        <time>2015-11-30T02:42:48Z</time>
      </trkpt>
      <trkpt lat="48.40836" lon="2.6361">
        <ele>137</ele>
        <time>2015-11-30T02:44:48Z</time>
      </trkpt>
      <trkpt lat="48.40847" lon="2.6361">
        <ele>138</ele>
        <time>2015-11-30T02:46:48Z</time>
      </trkpt>
      <trkpt lat="48.40856" lon="2.6359">
        <ele>139</ele>
        <time>2015-11-30T02:48:48Z</time>
      </trkpt>
      <trkpt lat="48.40856" lon="2.63568">
        <ele>139</ele>
        <time>2015-11-30T02:50:48Z</time>
      </trkpt>
      <trkpt lat="48.40867" lon="2.63539">
        <ele>139</ele>
        <time>2015-11-30T02:52:48Z</time>
      </trkpt>
      <trkpt lat="48.40867" lon="2.63529">
        <ele>139</ele>
        <time>2015-11-30T02:54:48Z</time>
      </trkpt>
      <trkpt lat="48.40868" lon="2.63509">
        <ele>139</ele>
        <time>2015-11-30T02:56:48Z</time>
      </trkpt>
      <trkpt lat="48.40875" lon="2.63487">
        <ele>138</ele>
        <time>2015-11-30T02:58:48Z</time>
      </trkpt>
      <trkpt lat="48.4089" lon="2.63474">
        <ele>139</ele>
        <time>2015-11-30T03:00:48Z</time>
      </trkpt>
    </trkseg>
  </trk>
</gpx>